sensor_id;sensor_type;location;lat;lon;timestamp;temperature;humidity
69393;SHT31;56582;44.624;20.378;2023-10-19T00:00:19;12.41;78.63
69393;SHT31;56582;44.624;20.378;2023-10-19T00:02:50;12.32;78.98
69393;SHT31;56582;44.624;20.378;2023-10-19T00:05:20;12.37;78.50
69393;SHT31;56582;44.624;20.378;2023-10-19T00:07:45;12.33;78.51
69393;SHT31;56582;44.624;20.378;2023-10-19T00:10:11;12.44;78.45
69393;SHT31;56582;44.624;20.378;2023-10-19T00:12:41;12.41;78.50
69393;SHT31;56582;44.624;20.378;2023-10-19T00:15:07;12.48;78.14
69393;SHT31;56582;44.624;20.378;2023-10-19T00:17:35;12.57;78.41
69393;SHT31;56582;44.624;20.378;2023-10-19T00:20:01;12.57;78.74
69393;SHT31;56582;44.624;20.378;2023-10-19T00:22:52;12.58;77.98
69393;SHT31;56582;44.624;20.378;2023-10-19T00:25:18;12.62;79.28
69393;SHT31;56582;44.624;20.378;2023-10-19T00:27:44;12.60;79.40
69393;SHT31;56582;44.624;20.378;2023-10-19T00:30:10;12.60;79.52
69393;SHT31;56582;44.624;20.378;2023-10-19T00:32:36;12.62;79.07
69393;SHT31;56582;44.624;20.378;2023-10-19T00:35:05;12.64;79.17
69393;SHT31;56582;44.624;20.378;2023-10-19T00:37:46;12.65;78.86
69393;SHT31;56582;44.624;20.378;2023-10-19T00:40:13;12.58;79.12
69393;SHT31;56582;44.624;20.378;2023-10-19T00:42:58;12.62;78.99
69393;SHT31;56582;44.624;20.378;2023-10-19T00:45:24;12.58;79.16
69393;SHT31;56582;44.624;20.378;2023-10-19T00:47:51;12.57;79.10
69393;SHT31;56582;44.624;20.378;2023-10-19T00:50:18;12.53;78.91
69393;SHT31;56582;44.624;20.378;2023-10-19T00:52:48;12.51;79.15
69393;SHT31;56582;44.624;20.378;2023-10-19T00:55:17;12.43;79.59
69393;SHT31;56582;44.624;20.378;2023-10-19T00:57:47;12.43;79.63
69393;SHT31;56582;44.624;20.378;2023-10-19T01:00:14;12.41;79.70
69393;SHT31;56582;44.624;20.378;2023-10-19T01:03:06;12.41;79.71
69393;SHT31;56582;44.624;20.378;2023-10-19T01:05:35;12.41;79.42
69393;SHT31;56582;44.624;20.378;2023-10-19T01:08:03;12.43;79.67
69393;SHT31;56582;44.624;20.378;2023-10-19T01:10:48;12.44;79.71
69393;SHT31;56582;44.624;20.378;2023-10-19T01:13:17;12.50;79.10
69393;SHT31;56582;44.624;20.378;2023-10-19T01:15:43;12.57;78.79
69393;SHT31;56582;44.624;20.378;2023-10-19T01:18:12;12.60;78.95
69393;SHT31;56582;44.624;20.378;2023-10-19T01:20:39;12.67;78.88
69393;SHT31;56582;44.624;20.378;2023-10-19T01:23:15;12.64;78.87
69393;SHT31;56582;44.624;20.378;2023-10-19T01:25:52;12.64;78.48
69393;SHT31;56582;44.624;20.378;2023-10-19T01:31:12;12.53;79.09
69393;SHT31;56582;44.624;20.378;2023-10-19T01:33:43;12.58;78.72
69393;SHT31;56582;44.624;20.378;2023-10-19T01:36:10;12.64;78.53
69393;SHT31;56582;44.624;20.378;2023-10-19T01:38:35;12.60;78.92
69393;SHT31;56582;44.624;20.378;2023-10-19T01:41:02;12.61;78.64
69393;SHT31;56582;44.624;20.378;2023-10-19T01:43:32;12.65;78.61
69393;SHT31;56582;44.624;20.378;2023-10-19T01:45:59;12.67;78.92
69393;SHT31;56582;44.624;20.378;2023-10-19T01:48:30;12.80;78.49
69393;SHT31;56582;44.624;20.378;2023-10-19T01:51:05;12.77;78.37
69393;SHT31;56582;44.624;20.378;2023-10-19T01:53:31;12.85;78.15
69393;SHT31;56582;44.624;20.378;2023-10-19T01:55:57;12.85;78.05
69393;SHT31;56582;44.624;20.378;2023-10-19T01:58:26;12.72;78.73
69393;SHT31;56582;44.624;20.378;2023-10-19T02:00:54;12.69;78.81
69393;SHT31;56582;44.624;20.378;2023-10-19T02:03:21;12.77;78.50
69393;SHT31;56582;44.624;20.378;2023-10-19T02:05:57;12.85;77.99
69393;SHT31;56582;44.624;20.378;2023-10-19T02:08:24;12.85;78.02
69393;SHT31;56582;44.624;20.378;2023-10-19T02:10:52;12.82;78.45
69393;SHT31;56582;44.624;20.378;2023-10-19T02:13:19;12.84;78.03
69393;SHT31;56582;44.624;20.378;2023-10-19T02:15:44;12.89;77.86
69393;SHT31;56582;44.624;20.378;2023-10-19T02:18:10;12.89;77.92
69393;SHT31;56582;44.624;20.378;2023-10-19T02:20:36;12.82;78.23
69393;SHT31;56582;44.624;20.378;2023-10-19T02:23:07;12.82;78.46
69393;SHT31;56582;44.624;20.378;2023-10-19T02:25:33;12.75;78.08
69393;SHT31;56582;44.624;20.378;2023-10-19T02:28:03;12.69;78.86
69393;SHT31;56582;44.624;20.378;2023-10-19T02:30:29;12.62;78.77
69393;SHT31;56582;44.624;20.378;2023-10-19T02:32:56;12.72;78.45
69393;SHT31;56582;44.624;20.378;2023-10-19T02:35:21;12.77;78.51
69393;SHT31;56582;44.624;20.378;2023-10-19T02:37:47;12.75;78.10
69393;SHT31;56582;44.624;20.378;2023-10-19T02:40:13;12.77;78.55
69393;SHT31;56582;44.624;20.378;2023-10-19T02:42:46;12.77;78.19
69393;SHT31;56582;44.624;20.378;2023-10-19T02:45:16;12.71;78.38
69393;SHT31;56582;44.624;20.378;2023-10-19T02:47:46;12.80;78.20
69393;SHT31;56582;44.624;20.378;2023-10-19T02:50:14;12.85;79.48
69393;SHT31;56582;44.624;20.378;2023-10-19T02:52:47;12.89;77.96
69393;SHT31;56582;44.624;20.378;2023-10-19T02:55:13;12.93;78.02
69393;SHT31;56582;44.624;20.378;2023-10-19T02:57:41;13.02;77.81
69393;SHT31;56582;44.624;20.378;2023-10-19T03:00:12;13.06;77.91
69393;SHT31;56582;44.624;20.378;2023-10-19T03:02:40;13.13;78.57
69393;SHT31;56582;44.624;20.378;2023-10-19T03:05:06;13.12;77.37
69393;SHT31;56582;44.624;20.378;2023-10-19T03:07:43;13.09;76.70
69393;SHT31;56582;44.624;20.378;2023-10-19T03:10:10;13.08;77.43
69393;SHT31;56582;44.624;20.378;2023-10-19T03:13:04;13.12;77.22
69393;SHT31;56582;44.624;20.378;2023-10-19T03:15:37;13.15;77.30
69393;SHT31;56582;44.624;20.378;2023-10-19T03:18:08;13.02;77.61
69393;SHT31;56582;44.624;20.378;2023-10-19T03:20:33;13.02;78.00
69393;SHT31;56582;44.624;20.378;2023-10-19T03:22:59;12.96;77.89
69393;SHT31;56582;44.624;20.378;2023-10-19T03:25:27;12.98;77.79
69393;SHT31;56582;44.624;20.378;2023-10-19T03:28:11;12.92;77.68
69393;SHT31;56582;44.624;20.378;2023-10-19T03:30:38;13.08;77.98
69393;SHT31;56582;44.624;20.378;2023-10-19T03:33:06;13.03;79.48
69393;SHT31;56582;44.624;20.378;2023-10-19T03:35:39;13.02;80.87
69393;SHT31;56582;44.624;20.378;2023-10-19T03:38:08;13.12;81.83
69393;SHT31;56582;44.624;20.378;2023-10-19T03:40:40;13.11;82.75
69393;SHT31;56582;44.624;20.378;2023-10-19T03:43:06;13.02;83.27
69393;SHT31;56582;44.624;20.378;2023-10-19T03:45:42;13.02;84.19
69393;SHT31;56582;44.624;20.378;2023-10-19T03:48:12;13.02;85.69
69393;SHT31;56582;44.624;20.378;2023-10-19T03:50:38;13.08;87.06
69393;SHT31;56582;44.624;20.378;2023-10-19T03:53:03;13.26;90.49
69393;SHT31;56582;44.624;20.378;2023-10-19T03:55:29;13.36;91.10
69393;SHT31;56582;44.624;20.378;2023-10-19T03:57:55;13.77;94.55
69393;SHT31;56582;44.624;20.378;2023-10-19T04:00:21;14.02;94.76
69393;SHT31;56582;44.624;20.378;2023-10-19T04:02:51;14.28;94.13
69393;SHT31;56582;44.624;20.378;2023-10-19T04:05:21;14.40;91.75
69393;SHT31;56582;44.624;20.378;2023-10-19T04:07:53;14.28;88.61
69393;SHT31;56582;44.624;20.378;2023-10-19T04:10:23;14.57;90.50
69393;SHT31;56582;44.624;20.378;2023-10-19T04:13:01;14.70;89.39
69393;SHT31;56582;44.624;20.378;2023-10-19T04:15:27;14.76;89.26
69393;SHT31;56582;44.624;20.378;2023-10-19T04:17:54;14.98;89.75
69393;SHT31;56582;44.624;20.378;2023-10-19T04:20:21;14.97;88.06
69393;SHT31;56582;44.624;20.378;2023-10-19T04:23:07;14.65;84.52
69393;SHT31;56582;44.624;20.378;2023-10-19T04:25:36;14.35;83.75
69393;SHT31;56582;44.624;20.378;2023-10-19T04:28:02;14.11;86.15
69393;SHT31;56582;44.624;20.378;2023-10-19T04:30:28;14.07;87.31
69393;SHT31;56582;44.624;20.378;2023-10-19T04:32:55;14.12;84.70
69393;SHT31;56582;44.624;20.378;2023-10-19T04:35:22;14.07;82.85
69393;SHT31;56582;44.624;20.378;2023-10-19T04:37:49;13.94;84.40
69393;SHT31;56582;44.624;20.378;2023-10-19T04:40:16;13.98;83.72
69393;SHT31;56582;44.624;20.378;2023-10-19T04:42:42;13.87;82.80
69393;SHT31;56582;44.624;20.378;2023-10-19T04:45:07;13.91;83.31
69393;SHT31;56582;44.624;20.378;2023-10-19T04:47:34;13.97;83.76
69393;SHT31;56582;44.624;20.378;2023-10-19T04:50:05;13.87;83.82
69393;SHT31;56582;44.624;20.378;2023-10-19T04:52:31;13.94;83.03
69393;SHT31;56582;44.624;20.378;2023-10-19T04:54:57;14.15;82.78
69393;SHT31;56582;44.624;20.378;2023-10-19T04:57:23;14.15;81.47
69393;SHT31;56582;44.624;20.378;2023-10-19T04:59:49;14.26;81.08
69393;SHT31;56582;44.624;20.378;2023-10-19T05:02:15;14.11;80.99
69393;SHT31;56582;44.624;20.378;2023-10-19T05:04:40;14.12;81.89
69393;SHT31;56582;44.624;20.378;2023-10-19T05:07:06;14.08;82.04
69393;SHT31;56582;44.624;20.378;2023-10-19T05:09:34;14.39;81.06
69393;SHT31;56582;44.624;20.378;2023-10-19T05:12:04;14.57;80.08
69393;SHT31;56582;44.624;20.378;2023-10-19T05:14:29;14.48;80.65
69393;SHT31;56582;44.624;20.378;2023-10-19T05:16:55;14.53;79.69
69393;SHT31;56582;44.624;20.378;2023-10-19T05:19:21;14.67;79.42
69393;SHT31;56582;44.624;20.378;2023-10-19T05:21:46;14.73;79.57
69393;SHT31;56582;44.624;20.378;2023-10-19T05:24:11;14.83;78.84
69393;SHT31;56582;44.624;20.378;2023-10-19T05:26:37;14.63;79.03
69393;SHT31;56582;44.624;20.378;2023-10-19T05:29:02;14.53;79.12
69393;SHT31;56582;44.624;20.378;2023-10-19T05:31:28;14.57;79.46
69393;SHT31;56582;44.624;20.378;2023-10-19T05:33:56;14.55;79.04
69393;SHT31;56582;44.624;20.378;2023-10-19T05:36:22;14.63;79.05
69393;SHT31;56582;44.624;20.378;2023-10-19T05:38:47;14.39;79.30
69393;SHT31;56582;44.624;20.378;2023-10-19T05:41:12;14.45;79.94
69393;SHT31;56582;44.624;20.378;2023-10-19T05:43:39;14.50;79.67
69393;SHT31;56582;44.624;20.378;2023-10-19T05:46:05;14.45;79.80
69393;SHT31;56582;44.624;20.378;2023-10-19T05:48:31;14.46;79.79
69393;SHT31;56582;44.624;20.378;2023-10-19T05:50:56;14.45;79.85
69393;SHT31;56582;44.624;20.378;2023-10-19T05:53:22;14.30;80.57
69393;SHT31;56582;44.624;20.378;2023-10-19T05:55:50;14.26;80.70
69393;SHT31;56582;44.624;20.378;2023-10-19T05:58:16;14.24;80.83
69393;SHT31;56582;44.624;20.378;2023-10-19T06:00:42;14.24;80.65
69393;SHT31;56582;44.624;20.378;2023-10-19T06:03:08;14.19;80.96
69393;SHT31;56582;44.624;20.378;2023-10-19T06:05:33;14.17;81.13
69393;SHT31;56582;44.624;20.378;2023-10-19T06:07:59;14.12;81.23
69393;SHT31;56582;44.624;20.378;2023-10-19T06:10:26;14.14;81.88
69393;SHT31;56582;44.624;20.378;2023-10-19T06:12:52;14.02;82.36
69393;SHT31;56582;44.624;20.378;2023-10-19T06:15:19;13.98;82.41
69393;SHT31;56582;44.624;20.378;2023-10-19T06:17:56;14.05;82.33
69393;SHT31;56582;44.624;20.378;2023-10-19T06:20:21;14.11;82.23
69393;SHT31;56582;44.624;20.378;2023-10-19T06:22:52;14.08;82.08
69393;SHT31;56582;44.624;20.378;2023-10-19T06:25:19;14.01;82.62
69393;SHT31;56582;44.624;20.378;2023-10-19T06:27:46;13.95;83.14
69393;SHT31;56582;44.624;20.378;2023-10-19T06:30:13;14.04;82.96
69393;SHT31;56582;44.624;20.378;2023-10-19T06:32:45;14.02;83.16
69393;SHT31;56582;44.624;20.378;2023-10-19T06:35:11;14.04;82.94
69393;SHT31;56582;44.624;20.378;2023-10-19T06:37:36;14.08;83.12
69393;SHT31;56582;44.624;20.378;2023-10-19T06:40:02;14.08;83.28
69393;SHT31;56582;44.624;20.378;2023-10-19T06:42:28;14.08;83.66
69393;SHT31;56582;44.624;20.378;2023-10-19T06:44:53;14.12;83.87
69393;SHT31;56582;44.624;20.378;2023-10-19T06:47:20;14.00;85.12
69393;SHT31;56582;44.624;20.378;2023-10-19T06:49:48;13.98;86.20
69393;SHT31;56582;44.624;20.378;2023-10-19T06:52:13;13.94;86.70
69393;SHT31;56582;44.624;20.378;2023-10-19T06:54:39;13.95;86.91
69393;SHT31;56582;44.624;20.378;2023-10-19T06:57:04;14.00;85.67
69393;SHT31;56582;44.624;20.378;2023-10-19T06:59:30;14.17;85.50
69393;SHT31;56582;44.624;20.378;2023-10-19T07:01:58;14.17;85.38
69393;SHT31;56582;44.624;20.378;2023-10-19T07:04:26;14.12;86.31
69393;SHT31;56582;44.624;20.378;2023-10-19T07:06:53;14.17;86.52
69393;SHT31;56582;44.624;20.378;2023-10-19T07:09:19;14.25;86.66
69393;SHT31;56582;44.624;20.378;2023-10-19T07:11:44;14.32;86.23
69393;SHT31;56582;44.624;20.378;2023-10-19T07:14:11;14.48;84.75
69393;SHT31;56582;44.624;20.378;2023-10-19T07:16:41;14.42;85.03
69393;SHT31;56582;44.624;20.378;2023-10-19T07:19:06;14.46;84.24
69393;SHT31;56582;44.624;20.378;2023-10-19T07:21:32;14.66;84.88
69393;SHT31;56582;44.624;20.378;2023-10-19T07:24:01;14.83;83.79
69393;SHT31;56582;44.624;20.378;2023-10-19T07:26:31;14.94;83.52
69393;SHT31;56582;44.624;20.378;2023-10-19T07:28:59;15.01;84.11
69393;SHT31;56582;44.624;20.378;2023-10-19T07:31:25;15.14;83.19
69393;SHT31;56582;44.624;20.378;2023-10-19T07:33:53;15.27;82.84
69393;SHT31;56582;44.624;20.378;2023-10-19T07:36:21;15.45;83.45
69393;SHT31;56582;44.624;20.378;2023-10-19T07:38:48;15.51;81.96
69393;SHT31;56582;44.624;20.378;2023-10-19T07:41:13;15.61;83.23
69393;SHT31;56582;44.624;20.378;2023-10-19T07:43:39;15.67;83.13
69393;SHT31;56582;44.624;20.378;2023-10-19T07:46:04;15.75;80.40
69393;SHT31;56582;44.624;20.378;2023-10-19T07:48:30;15.86;80.58
69393;SHT31;56582;44.624;20.378;2023-10-19T07:50:55;15.97;80.49
69393;SHT31;56582;44.624;20.378;2023-10-19T07:53:22;16.03;80.07
69393;SHT31;56582;44.624;20.378;2023-10-19T07:55:47;15.94;80.72
69393;SHT31;56582;44.624;20.378;2023-10-19T07:58:13;16.06;81.94
69393;SHT31;56582;44.624;20.378;2023-10-19T08:00:38;16.18;79.82
69393;SHT31;56582;44.624;20.378;2023-10-19T08:03:04;16.23;80.40
69393;SHT31;56582;44.624;20.378;2023-10-19T08:05:30;16.41;79.43
69393;SHT31;56582;44.624;20.378;2023-10-19T08:07:56;16.41;79.12
69393;SHT31;56582;44.624;20.378;2023-10-19T08:10:26;16.58;79.35
69393;SHT31;56582;44.624;20.378;2023-10-19T08:12:52;16.67;78.36
69393;SHT31;56582;44.624;20.378;2023-10-19T08:15:18;16.73;78.19
69393;SHT31;56582;44.624;20.378;2023-10-19T08:17:47;16.86;77.99
69393;SHT31;56582;44.624;20.378;2023-10-19T08:20:14;17.00;77.29
69393;SHT31;56582;44.624;20.378;2023-10-19T08:22:49;17.02;76.62
69393;SHT31;56582;44.624;20.378;2023-10-19T08:25:15;17.23;77.70
69393;SHT31;56582;44.624;20.378;2023-10-19T08:27:44;17.22;75.36
69393;SHT31;56582;44.624;20.378;2023-10-19T08:30:11;17.33;75.22
69393;SHT31;56582;44.624;20.378;2023-10-19T08:32:39;17.47;76.41
69393;SHT31;56582;44.624;20.378;2023-10-19T08:35:05;17.66;76.71
69393;SHT31;56582;44.624;20.378;2023-10-19T08:37:31;17.74;74.81
69393;SHT31;56582;44.624;20.378;2023-10-19T08:39:57;17.85;74.40
69393;SHT31;56582;44.624;20.378;2023-10-19T08:42:23;17.87;75.23
69393;SHT31;56582;44.624;20.378;2023-10-19T08:44:49;18.05;75.81
69393;SHT31;56582;44.624;20.378;2023-10-19T08:47:15;18.19;72.92
69393;SHT31;56582;44.624;20.378;2023-10-19T08:49:41;18.24;73.38
69393;SHT31;56582;44.624;20.378;2023-10-19T08:52:08;18.42;72.76
69393;SHT31;56582;44.624;20.378;2023-10-19T08:54:34;18.57;74.13
69393;SHT31;56582;44.624;20.378;2023-10-19T08:57:00;18.76;74.28
69393;SHT31;56582;44.624;20.378;2023-10-19T08:59:26;18.86;73.14
69393;SHT31;56582;44.624;20.378;2023-10-19T09:02:02;18.98;73.36
69393;SHT31;56582;44.624;20.378;2023-10-19T09:04:28;19.03;72.25
69393;SHT31;56582;44.624;20.378;2023-10-19T09:06:54;18.93;70.93
69393;SHT31;56582;44.624;20.378;2023-10-19T09:09:21;19.05;71.63
69393;SHT31;56582;44.624;20.378;2023-10-19T09:11:51;19.16;71.26
69393;SHT31;56582;44.624;20.378;2023-10-19T09:14:36;19.29;70.59
69393;SHT31;56582;44.624;20.378;2023-10-19T09:17:06;19.52;70.91
69393;SHT31;56582;44.624;20.378;2023-10-19T09:19:40;19.73;71.64
69393;SHT31;56582;44.624;20.378;2023-10-19T09:22:07;19.86;71.05
69393;SHT31;56582;44.624;20.378;2023-10-19T09:24:34;20.07;69.86
69393;SHT31;56582;44.624;20.378;2023-10-19T09:27:02;20.17;70.22
69393;SHT31;56582;44.624;20.378;2023-10-19T09:29:28;20.13;68.64
69393;SHT31;56582;44.624;20.378;2023-10-19T09:31:55;20.14;68.83
69393;SHT31;56582;44.624;20.378;2023-10-19T09:34:24;19.86;67.22
69393;SHT31;56582;44.624;20.378;2023-10-19T09:36:57;20.11;68.79
69393;SHT31;56582;44.624;20.378;2023-10-19T09:39:24;20.34;67.69
69393;SHT31;56582;44.624;20.378;2023-10-19T09:41:50;20.48;67.48
69393;SHT31;56582;44.624;20.378;2023-10-19T09:44:21;20.71;67.59
69393;SHT31;56582;44.624;20.378;2023-10-19T09:46:52;20.93;64.95
69393;SHT31;56582;44.624;20.378;2023-10-19T09:49:20;20.90;66.95
69393;SHT31;56582;44.624;20.378;2023-10-19T09:51:45;21.00;65.92
69393;SHT31;56582;44.624;20.378;2023-10-19T09:54:22;21.02;64.69
69393;SHT31;56582;44.624;20.378;2023-10-19T09:56:57;21.11;64.53
69393;SHT31;56582;44.624;20.378;2023-10-19T10:02:10;20.89;66.09
69393;SHT31;56582;44.624;20.378;2023-10-19T10:04:39;20.76;65.25
69393;SHT31;56582;44.624;20.378;2023-10-19T10:07:10;20.79;65.71
69393;SHT31;56582;44.624;20.378;2023-10-19T10:09:42;20.93;66.87
69393;SHT31;56582;44.624;20.378;2023-10-19T10:12:20;21.04;67.61
69393;SHT31;56582;44.624;20.378;2023-10-19T10:14:58;21.14;64.95
69393;SHT31;56582;44.624;20.378;2023-10-19T10:17:27;21.34;65.35
69393;SHT31;56582;44.624;20.378;2023-10-19T10:22:39;21.69;63.49
69393;SHT31;56582;44.624;20.378;2023-10-19T10:25:07;21.87;64.29
69393;SHT31;56582;44.624;20.378;2023-10-19T10:27:36;21.71;63.20
69393;SHT31;56582;44.624;20.378;2023-10-19T10:30:04;21.47;63.71
69393;SHT31;56582;44.624;20.378;2023-10-19T10:33:02;21.34;63.23
69393;SHT31;56582;44.624;20.378;2023-10-19T10:38:07;21.06;64.77
69393;SHT31;56582;44.624;20.378;2023-10-19T10:40:46;21.02;66.19
69393;SHT31;56582;44.624;20.378;2023-10-19T10:43:13;21.04;65.70
69393;SHT31;56582;44.624;20.378;2023-10-19T10:45:38;21.16;64.69
69393;SHT31;56582;44.624;20.378;2023-10-19T10:48:10;21.24;64.88
69393;SHT31;56582;44.624;20.378;2023-10-19T10:50:37;21.30;65.35
69393;SHT31;56582;44.624;20.378;2023-10-19T10:53:05;21.54;65.87
69393;SHT31;56582;44.624;20.378;2023-10-19T10:55:31;21.89;65.11
69393;SHT31;56582;44.624;20.378;2023-10-19T10:57:57;22.10;63.46
69393;SHT31;56582;44.624;20.378;2023-10-19T11:00:23;22.37;63.19
69393;SHT31;56582;44.624;20.378;2023-10-19T11:03:07;22.63;61.28
69393;SHT31;56582;44.624;20.378;2023-10-19T11:05:34;22.49;62.38
69393;SHT31;56582;44.624;20.378;2023-10-19T11:08:10;22.70;64.31
69393;SHT31;56582;44.624;20.378;2023-10-19T11:10:39;22.73;61.66
69393;SHT31;56582;44.624;20.378;2023-10-19T11:13:07;22.90;61.54
69393;SHT31;56582;44.624;20.378;2023-10-19T11:15:36;23.12;60.66
69393;SHT31;56582;44.624;20.378;2023-10-19T11:18:02;22.86;59.38
69393;SHT31;56582;44.624;20.378;2023-10-19T11:20:28;23.05;60.36
69393;SHT31;56582;44.624;20.378;2023-10-19T11:22:55;23.07;60.07
69393;SHT31;56582;44.624;20.378;2023-10-19T11:25:28;23.07;60.12
69393;SHT31;56582;44.624;20.378;2023-10-19T11:27:58;22.98;58.98
69393;SHT31;56582;44.624;20.378;2023-10-19T11:30:25;23.11;59.57
69393;SHT31;56582;44.624;20.378;2023-10-19T11:32:51;23.37;61.11
69393;SHT31;56582;44.624;20.378;2023-10-19T11:35:27;23.56;59.16
69393;SHT31;56582;44.624;20.378;2023-10-19T11:37:55;23.56;59.58
69393;SHT31;56582;44.624;20.378;2023-10-19T11:40:22;23.59;58.50
69393;SHT31;56582;44.624;20.378;2023-10-19T11:42:49;23.73;59.19
69393;SHT31;56582;44.624;20.378;2023-10-19T11:45:16;23.79;60.16
69393;SHT31;56582;44.624;20.378;2023-10-19T11:47:45;23.87;58.99
69393;SHT31;56582;44.624;20.378;2023-10-19T11:50:12;23.97;59.32
69393;SHT31;56582;44.624;20.378;2023-10-19T11:52:40;24.00;59.30
69393;SHT31;56582;44.624;20.378;2023-10-19T11:55:05;23.89;58.19
69393;SHT31;56582;44.624;20.378;2023-10-19T11:57:31;23.84;58.06
69393;SHT31;56582;44.624;20.378;2023-10-19T11:59:57;23.66;57.52
69393;SHT31;56582;44.624;20.378;2023-10-19T12:02:25;23.33;57.77
69393;SHT31;56582;44.624;20.378;2023-10-19T12:04:52;23.19;57.33
69393;SHT31;56582;44.624;20.378;2023-10-19T12:07:18;23.10;58.14
69393;SHT31;56582;44.624;20.378;2023-10-19T12:09:43;22.77;57.85
69393;SHT31;56582;44.624;20.378;2023-10-19T12:12:10;22.52;58.81
69393;SHT31;56582;44.624;20.378;2023-10-19T12:14:39;22.39;58.41
69393;SHT31;56582;44.624;20.378;2023-10-19T12:17:04;22.33;59.91
69393;SHT31;56582;44.624;20.378;2023-10-19T12:19:32;22.33;59.83
69393;SHT31;56582;44.624;20.378;2023-10-19T12:21:59;22.16;60.57
69393;SHT31;56582;44.624;20.378;2023-10-19T12:24:25;22.18;60.27
69393;SHT31;56582;44.624;20.378;2023-10-19T12:26:53;22.13;60.86
69393;SHT31;56582;44.624;20.378;2023-10-19T12:29:19;22.08;60.74
69393;SHT31;56582;44.624;20.378;2023-10-19T12:31:47;21.97;64.40
69393;SHT31;56582;44.624;20.378;2023-10-19T12:34:12;21.61;65.96
69393;SHT31;56582;44.624;20.378;2023-10-19T12:36:38;21.62;66.24
69393;SHT31;56582;44.624;20.378;2023-10-19T12:39:04;21.54;64.74
69393;SHT31;56582;44.624;20.378;2023-10-19T12:41:33;21.54;64.70
69393;SHT31;56582;44.624;20.378;2023-10-19T12:43:59;21.54;65.10
69393;SHT31;56582;44.624;20.378;2023-10-19T12:46:33;21.58;64.07
69393;SHT31;56582;44.624;20.378;2023-10-19T12:49:04;21.53;64.80
69393;SHT31;56582;44.624;20.378;2023-10-19T12:51:33;21.50;64.05
69393;SHT31;56582;44.624;20.378;2023-10-19T12:54:00;21.48;65.11
69393;SHT31;56582;44.624;20.378;2023-10-19T12:56:28;21.40;65.08
69393;SHT31;56582;44.624;20.378;2023-10-19T12:58:54;21.36;64.66
69393;SHT31;56582;44.624;20.378;2023-10-19T13:01:20;21.27;63.94
69393;SHT31;56582;44.624;20.378;2023-10-19T13:03:47;21.18;64.32
69393;SHT31;56582;44.624;20.378;2023-10-19T13:06:14;21.26;64.32
69393;SHT31;56582;44.624;20.378;2023-10-19T13:08:40;21.19;65.06
69393;SHT31;56582;44.624;20.378;2023-10-19T13:11:07;21.03;65.84
69393;SHT31;56582;44.624;20.378;2023-10-19T13:13:33;20.88;66.53
69393;SHT31;56582;44.624;20.378;2023-10-19T13:16:01;20.82;66.67
69393;SHT31;56582;44.624;20.378;2023-10-19T13:18:31;20.73;67.77
69393;SHT31;56582;44.624;20.378;2023-10-19T13:20:59;20.69;68.28
69393;SHT31;56582;44.624;20.378;2023-10-19T13:23:30;20.48;70.35
69393;SHT31;56582;44.624;20.378;2023-10-19T13:25:58;20.35;69.24
69393;SHT31;56582;44.624;20.378;2023-10-19T13:28:34;20.47;68.85
69393;SHT31;56582;44.624;20.378;2023-10-19T13:31:03;20.51;68.66
69393;SHT31;56582;44.624;20.378;2023-10-19T13:33:29;20.56;69.08
69393;SHT31;56582;44.624;20.378;2023-10-19T13:35:54;20.56;69.69
69393;SHT31;56582;44.624;20.378;2023-10-19T13:38:20;20.59;69.30
69393;SHT31;56582;44.624;20.378;2023-10-19T13:40:46;20.52;69.36
69393;SHT31;56582;44.624;20.378;2023-10-19T13:43:13;20.56;68.92
69393;SHT31;56582;44.624;20.378;2023-10-19T13:45:43;20.53;69.79
69393;SHT31;56582;44.624;20.378;2023-10-19T13:48:10;20.55;69.92
69393;SHT31;56582;44.624;20.378;2023-10-19T13:50:41;20.67;70.11
69393;SHT31;56582;44.624;20.378;2023-10-19T13:53:08;20.61;70.41
69393;SHT31;56582;44.624;20.378;2023-10-19T13:55:35;20.68;70.15
69393;SHT31;56582;44.624;20.378;2023-10-19T13:58:02;20.62;71.40
69393;SHT31;56582;44.624;20.378;2023-10-19T14:00:27;20.62;70.64
69393;SHT31;56582;44.624;20.378;2023-10-19T14:03:01;20.62;69.94
69393;SHT31;56582;44.624;20.378;2023-10-19T14:05:34;20.67;69.74
69393;SHT31;56582;44.624;20.378;2023-10-19T14:08:01;20.61;70.71
69393;SHT31;56582;44.624;20.378;2023-10-19T14:10:29;20.51;69.98
69393;SHT31;56582;44.624;20.378;2023-10-19T14:12:56;20.44;68.97
69393;SHT31;56582;44.624;20.378;2023-10-19T14:15:21;20.42;68.75
69393;SHT31;56582;44.624;20.378;2023-10-19T14:17:48;20.44;69.00
69393;SHT31;56582;44.624;20.378;2023-10-19T14:20:14;20.41;68.86
69393;SHT31;56582;44.624;20.378;2023-10-19T14:22:45;20.40;68.76
69393;SHT31;56582;44.624;20.378;2023-10-19T14:25:12;20.40;68.47
69393;SHT31;56582;44.624;20.378;2023-10-19T14:27:42;20.32;68.13
69393;SHT31;56582;44.624;20.378;2023-10-19T14:30:21;20.38;67.94
69393;SHT31;56582;44.624;20.378;2023-10-19T14:32:48;20.37;67.74
69393;SHT31;56582;44.624;20.378;2023-10-19T14:35:15;20.31;68.68
69393;SHT31;56582;44.624;20.378;2023-10-19T14:37:42;20.35;68.53
69393;SHT31;56582;44.624;20.378;2023-10-19T14:40:15;20.24;68.43
69393;SHT31;56582;44.624;20.378;2023-10-19T14:42:42;20.20;69.18
69393;SHT31;56582;44.624;20.378;2023-10-19T14:45:09;20.09;70.12
69393;SHT31;56582;44.624;20.378;2023-10-19T14:47:39;20.07;69.34
69393;SHT31;56582;44.624;20.378;2023-10-19T14:50:10;20.10;69.27
69393;SHT31;56582;44.624;20.378;2023-10-19T14:52:42;20.09;69.89
69393;SHT31;56582;44.624;20.378;2023-10-19T14:55:09;19.93;69.64
69393;SHT31;56582;44.624;20.378;2023-10-19T14:57:35;19.92;69.79
69393;SHT31;56582;44.624;20.378;2023-10-19T15:00:04;19.90;70.06
69393;SHT31;56582;44.624;20.378;2023-10-19T15:02:44;19.83;69.96
69393;SHT31;56582;44.624;20.378;2023-10-19T15:05:13;19.73;70.29
69393;SHT31;56582;44.624;20.378;2023-10-19T15:07:41;19.80;69.75
69393;SHT31;56582;44.624;20.378;2023-10-19T15:10:08;19.82;69.19
69393;SHT31;56582;44.624;20.378;2023-10-19T15:12:38;19.73;69.81
69393;SHT31;56582;44.624;20.378;2023-10-19T15:15:05;19.58;69.81
69393;SHT31;56582;44.624;20.378;2023-10-19T15:17:31;19.62;69.21
69393;SHT31;56582;44.624;20.378;2023-10-19T15:19:57;19.70;69.83
69393;SHT31;56582;44.624;20.378;2023-10-19T15:22:24;19.56;69.90
69393;SHT31;56582;44.624;20.378;2023-10-19T15:24:52;19.58;69.53
69393;SHT31;56582;44.624;20.378;2023-10-19T15:27:18;19.56;69.76
69393;SHT31;56582;44.624;20.378;2023-10-19T15:29:46;19.53;69.88
69393;SHT31;56582;44.624;20.378;2023-10-19T15:32:11;19.51;69.97